AFR840 LFPO-TFFF
Flight info
| Callsign | AFR840 |
|---|---|
| Flight time | 1h 35m |
| Altitude | 32000 |
| Route | LGL UN491 OTOFE DCT ALUTA DCT TAKAS/M082F320 DCT TAMEL DCT 47N020W 4430N03000W/M082F340 4030N04000W 3630N04500W 3130N05000W/M082F360 25N055W DCT CITRS/N0476F360 DCT UMAMU UMAMU2D |
| Aircraft | B77W/H-SDE1E2E3FGHIJ2J3J4J5M1RWXY/LB1D1 |
Departure
| Time | 2026-05-08 10:03 |
|---|---|
| Airport | Paris-Orly Airport (LFPO) |
Arrival
| Time | 2026-05-08 11:38 |
|---|---|
| Airport | Martinique Aimé Césaire International Airport (TFFF) |
| Time | Latitude | Longitude | Altitude | Speed | Heading |
|---|---|---|---|---|---|
| 2026-05-08 09:38 | 48.72582 | 2.36156 | 298 ft | 0 kts | 346° |
| 2026-05-08 09:54 | 48.72575 | 2.36159 | 305 ft | 4 kts | 339° |
| 2026-05-08 09:54 | 48.72556 | 2.36181 | 304 ft | 4 kts | 298° |
| 2026-05-08 09:54 | 48.72544 | 2.36199 | 303 ft | 3 kts | 338° |
| 2026-05-08 09:54 | 48.72522 | 2.36219 | 303 ft | 4 kts | 310° |
| 2026-05-08 09:55 | 48.72512 | 2.36252 | 304 ft | 4 kts | 262° |
| 2026-05-08 09:55 | 48.72518 | 2.36289 | 304 ft | 4 kts | 255° |
| 2026-05-08 09:55 | 48.72522 | 2.36314 | 304 ft | 0 kts | 255° |
| 2026-05-08 09:58 | 48.72522 | 2.36313 | 304 ft | 1 kts | 255° |
| 2026-05-08 09:58 | 48.72514 | 2.36267 | 304 ft | 9 kts | 255° |
| 2026-05-08 09:59 | 48.72491 | 2.36146 | 303 ft | 13 kts | 254° |
| 2026-05-08 09:59 | 48.72470 | 2.36017 | 302 ft | 13 kts | 262° |
| 2026-05-08 09:59 | 48.72472 | 2.35885 | 300 ft | 13 kts | 276° |
| 2026-05-08 09:59 | 48.72476 | 2.35752 | 303 ft | 13 kts | 262° |
| 2026-05-08 10:00 | 48.72437 | 2.35638 | 302 ft | 13 kts | 212° |
| 2026-05-08 10:00 | 48.72350 | 2.35633 | 298 ft | 13 kts | 185° |
| 2026-05-08 10:00 | 48.72264 | 2.35610 | 301 ft | 13 kts | 187° |
| 2026-05-08 10:00 | 48.72177 | 2.35623 | 299 ft | 13 kts | 168° |
| 2026-05-08 10:01 | 48.72094 | 2.35664 | 304 ft | 13 kts | 154° |
| 2026-05-08 10:01 | 48.72029 | 2.35752 | 304 ft | 13 kts | 124° |
| 2026-05-08 10:01 | 48.71994 | 2.35840 | 305 ft | 8 kts | 130° |
| 2026-05-08 10:01 | 48.71956 | 2.35873 | 305 ft | 6 kts | 139° |
| 2026-05-08 10:02 | 48.71954 | 2.35923 | 306 ft | 2 kts | 75° |
| 2026-05-08 10:02 | 48.71955 | 2.35925 | 306 ft | 0 kts | 74° |
| 2026-05-08 10:02 | 48.71956 | 2.35929 | 302 ft | 5 kts | 74° |
| 2026-05-08 10:02 | 48.72014 | 2.36251 | 305 ft | 68 kts | 75° |
| 2026-05-08 10:03 | 48.72212 | 2.37326 | 301 ft | 141 kts | 74° |
| 2026-05-08 10:03 | 48.72531 | 2.39055 | 332 ft | 193 kts | 74° |
| 2026-05-08 10:03 | 48.72900 | 2.41034 | 899 ft | 197 kts | 73° |
| 2026-05-08 10:03 | 48.73282 | 2.43068 | 1642 ft | 203 kts | 74° |
| 2026-05-08 10:04 | 48.73675 | 2.45134 | 2305 ft | 210 kts | 75° |
| 2026-05-08 10:04 | 48.74073 | 2.47414 | 2453 ft | 236 kts | 80° |
| 2026-05-08 10:04 | 48.74219 | 2.49971 | 2931 ft | 247 kts | 88° |
| 2026-05-08 10:04 | 48.74275 | 2.52573 | 3688 ft | 250 kts | 88° |
| 2026-05-08 10:05 | 48.74329 | 2.55230 | 4356 ft | 257 kts | 91° |
| 2026-05-08 10:05 | 48.73889 | 2.57872 | 4905 ft | 266 kts | 121° |
| 2026-05-08 10:05 | 48.72603 | 2.59880 | 5588 ft | 270 kts | 150° |
| 2026-05-08 10:05 | 48.71454 | 2.60610 | 6094 ft | 271 kts | 168° |
| 2026-05-08 10:06 | 48.69579 | 2.60623 | 6800 ft | 273 kts | 195° |
| 2026-05-08 10:06 | 48.67514 | 2.58714 | 7659 ft | 274 kts | 232° |
| 2026-05-08 10:06 | 48.66875 | 2.57031 | 8129 ft | 273 kts | 253° |
| 2026-05-08 10:06 | 48.66627 | 2.54216 | 8845 ft | 270 kts | 270° |
| 2026-05-08 10:07 | 48.66633 | 2.51338 | 9393 ft | 278 kts | 272° |
| 2026-05-08 10:07 | 48.66671 | 2.48424 | 10131 ft | 276 kts | 269° |
| 2026-05-08 10:07 | 48.66648 | 2.45527 | 10706 ft | 285 kts | 269° |
| 2026-05-08 10:07 | 48.66617 | 2.42400 | 10840 ft | 308 kts | 269° |
| 2026-05-08 10:08 | 48.66591 | 2.39039 | 11051 ft | 330 kts | 270° |
| 2026-05-08 10:08 | 48.66746 | 2.35460 | 11224 ft | 353 kts | 275° |
| 2026-05-08 10:08 | 48.67040 | 2.31708 | 11829 ft | 363 kts | 276° |
| 2026-05-08 10:08 | 48.67369 | 2.27861 | 12525 ft | 371 kts | 276° |
| 2026-05-08 10:09 | 48.67699 | 2.23975 | 13104 ft | 374 kts | 276° |
| 2026-05-08 10:09 | 48.68020 | 2.20043 | 13393 ft | 380 kts | 275° |
| 2026-05-08 10:09 | 48.68332 | 2.16049 | 14213 ft | 384 kts | 275° |
| 2026-05-08 10:09 | 48.68638 | 2.12019 | 15038 ft | 385 kts | 275° |
| 2026-05-08 10:10 | 48.68937 | 2.07978 | 15813 ft | 389 kts | 275° |
| 2026-05-08 10:10 | 48.69232 | 2.03936 | 16539 ft | 394 kts | 275° |
| 2026-05-08 10:10 | 48.69530 | 1.99800 | 17287 ft | 398 kts | 274° |
| 2026-05-08 10:10 | 48.69829 | 1.95624 | 18048 ft | 401 kts | 274° |
| 2026-05-08 10:11 | 48.70129 | 1.91397 | 18747 ft | 405 kts | 274° |
| 2026-05-08 10:11 | 48.70431 | 1.87134 | 19398 ft | 409 kts | 274° |
| 2026-05-08 10:11 | 48.70733 | 1.82831 | 20053 ft | 412 kts | 274° |
| 2026-05-08 10:11 | 48.71037 | 1.78491 | 20723 ft | 415 kts | 274° |
| 2026-05-08 10:12 | 48.71341 | 1.74119 | 21361 ft | 419 kts | 274° |
| 2026-05-08 10:12 | 48.71645 | 1.69718 | 22029 ft | 421 kts | 274° |
| 2026-05-08 10:12 | 48.71947 | 1.65332 | 22659 ft | 424 kts | 274° |
| 2026-05-08 10:12 | 48.72253 | 1.60860 | 23271 ft | 428 kts | 274° |
| 2026-05-08 10:13 | 48.72559 | 1.56354 | 23829 ft | 431 kts | 274° |
| 2026-05-08 10:13 | 48.72866 | 1.51821 | 24359 ft | 433 kts | 274° |
| 2026-05-08 10:13 | 48.73172 | 1.47271 | 24926 ft | 434 kts | 274° |
| 2026-05-08 10:13 | 48.73476 | 1.42721 | 25482 ft | 435 kts | 274° |
| 2026-05-08 10:14 | 48.73781 | 1.38143 | 26010 ft | 437 kts | 274° |
| 2026-05-08 10:14 | 48.74085 | 1.33542 | 26498 ft | 439 kts | 275° |
| 2026-05-08 10:14 | 48.74384 | 1.28979 | 26995 ft | 441 kts | 275° |
| 2026-05-08 10:14 | 48.74684 | 1.24377 | 27589 ft | 440 kts | 276° |
| 2026-05-08 10:15 | 48.74984 | 1.19749 | 28118 ft | 441 kts | 276° |
| 2026-05-08 10:15 | 48.75284 | 1.15104 | 28551 ft | 443 kts | 276° |
| 2026-05-08 10:15 | 48.75582 | 1.10449 | 28948 ft | 446 kts | 276° |
| 2026-05-08 10:15 | 48.75880 | 1.05753 | 29364 ft | 447 kts | 276° |
| 2026-05-08 10:16 | 48.76176 | 1.01070 | 29923 ft | 444 kts | 276° |
| 2026-05-08 10:16 | 48.76468 | 0.96408 | 30442 ft | 442 kts | 277° |
| 2026-05-08 10:16 | 48.76758 | 0.91750 | 30699 ft | 445 kts | 277° |
| 2026-05-08 10:16 | 48.77045 | 0.87116 | 30917 ft | 447 kts | 277° |
| 2026-05-08 10:17 | 48.77334 | 0.82417 | 31176 ft | 449 kts | 277° |
| 2026-05-08 10:17 | 48.77623 | 0.77691 | 31421 ft | 448 kts | 277° |
| 2026-05-08 10:17 | 48.77908 | 0.72986 | 31671 ft | 448 kts | 277° |
| 2026-05-08 10:17 | 48.78192 | 0.68281 | 31910 ft | 447 kts | 277° |
| 2026-05-08 10:18 | 48.78753 | 0.58897 | 32011 ft | 445 kts | 277° |
| 2026-05-08 10:18 | 48.79303 | 0.49643 | 32249 ft | 440 kts | 278° |
| 2026-05-08 10:19 | 48.79592 | 0.45022 | 32519 ft | 440 kts | 278° |
| 2026-05-08 10:19 | 48.79884 | 0.40405 | 32756 ft | 440 kts | 278° |
| 2026-05-08 10:19 | 48.80176 | 0.35782 | 33021 ft | 439 kts | 278° |
| 2026-05-08 10:20 | 48.80750 | 0.26569 | 33541 ft | 438 kts | 278° |
| 2026-05-08 10:20 | 48.81033 | 0.21956 | 33813 ft | 437 kts | 278° |
| 2026-05-08 10:20 | 48.81314 | 0.17348 | 33970 ft | 438 kts | 278° |
| 2026-05-08 10:20 | 48.83464 | -0.18939 | 34146 ft | 446 kts | 277° |
| 2026-05-08 10:21 | 48.87419 | -0.95150 | 34183 ft | 453 kts | 276° |
| 2026-05-08 10:21 | 48.90833 | -1.71296 | 33873 ft | 443 kts | 275° |
| 2026-05-08 10:21 | 48.93779 | -2.45298 | 33872 ft | 433 kts | 274° |
| 2026-05-08 10:21 | 48.96170 | -3.18806 | 34115 ft | 440 kts | 272° |
| 2026-05-08 10:22 | 48.98071 | -3.94271 | 34197 ft | 452 kts | 271° |
| 2026-05-08 10:22 | 48.99547 | -4.71253 | 33989 ft | 453 kts | 270° |
| 2026-05-08 10:22 | 49.00503 | -5.47990 | 33938 ft | 453 kts | 269° |
| 2026-05-08 10:23 | 49.00820 | -7.01833 | 33999 ft | 456 kts | 266° |
| 2026-05-08 10:23 | 48.94329 | -8.55524 | 34049 ft | 453 kts | 256° |
| 2026-05-08 10:23 | 48.86435 | -9.31402 | 34143 ft | 464 kts | 256° |
| 2026-05-08 10:24 | 48.77693 | -10.08550 | 34019 ft | 463 kts | 255° |
| 2026-05-08 10:24 | 48.68111 | -10.84691 | 33775 ft | 452 kts | 253° |
| 2026-05-08 10:24 | 48.57477 | -11.58912 | 33931 ft | 450 kts | 252° |
| 2026-05-08 10:24 | 48.46354 | -12.33300 | 34133 ft | 461 kts | 251° |
| 2026-05-08 10:25 | 48.36342 | -12.97567 | 34047 ft | 467 kts | 251° |
| 2026-05-08 10:25 | 48.24042 | -13.73039 | 33800 ft | 460 kts | 249° |
| 2026-05-08 10:25 | 48.11575 | -14.46529 | 33846 ft | 453 kts | 248° |
| 2026-05-08 10:25 | 47.98604 | -15.19452 | 34078 ft | 465 kts | 248° |
| 2026-05-08 10:26 | 47.84671 | -15.94924 | 34134 ft | 477 kts | 248° |
| 2026-05-08 10:26 | 47.70111 | -16.70772 | 33863 ft | 474 kts | 249° |
| 2026-05-08 10:26 | 47.58164 | -17.30837 | 33813 ft | 472 kts | 249° |
| 2026-05-08 10:26 | 47.50591 | -17.67986 | 33940 ft | 471 kts | 249° |
| 2026-05-08 10:27 | 47.42867 | -18.05091 | 33945 ft | 473 kts | 249° |
| 2026-05-08 10:27 | 47.27002 | -18.79375 | 33912 ft | 476 kts | 249° |
| 2026-05-08 10:28 | 47.10542 | -19.53680 | 33916 ft | 478 kts | 250° |
| 2026-05-08 10:28 | 46.94378 | -20.27872 | 33841 ft | 474 kts | 253° |
| 2026-05-08 10:29 | 46.79583 | -21.01099 | 33939 ft | 472 kts | 253° |
| 2026-05-08 10:29 | 46.71850 | -21.38272 | 34038 ft | 485 kts | 253° |
| 2026-05-08 10:29 | 46.63907 | -21.75461 | 33871 ft | 489 kts | 254° |
| 2026-05-08 10:30 | 46.53642 | -22.22848 | 33788 ft | 477 kts | 254° |
| 2026-05-08 10:30 | 46.49615 | -22.41126 | 33955 ft | 477 kts | 255° |
| 2026-05-08 10:30 | 46.45494 | -22.59670 | 34001 ft | 488 kts | 256° |
| 2026-05-08 10:31 | 46.37039 | -22.97164 | 33930 ft | 481 kts | 255° |
| 2026-05-08 10:31 | 46.28688 | -23.33590 | 34141 ft | 479 kts | 255° |
| 2026-05-08 10:31 | 46.24403 | -23.52048 | 34213 ft | 491 kts | 256° |
| 2026-05-08 10:32 | 46.20040 | -23.70667 | 33911 ft | 491 kts | 256° |
| 2026-05-08 10:32 | 46.15688 | -23.89057 | 33622 ft | 477 kts | 257° |
| 2026-05-08 10:32 | 46.11453 | -24.06839 | 34117 ft | 466 kts | 257° |
| 2026-05-08 10:32 | 46.07136 | -24.24876 | 34156 ft | 485 kts | 257° |
| 2026-05-08 10:33 | 46.02617 | -24.43535 | 34017 ft | 494 kts | 257° |
| 2026-05-08 10:33 | 45.98105 | -24.61965 | 33878 ft | 482 kts | 258° |
| 2026-05-08 10:33 | 45.93698 | -24.79869 | 33895 ft | 468 kts | 258° |
| 2026-05-08 10:33 | 45.89341 | -24.97479 | 34233 ft | 473 kts | 258° |
| 2026-05-08 10:34 | 45.84828 | -25.15575 | 34219 ft | 492 kts | 257° |
| 2026-05-08 10:34 | 45.80160 | -25.34062 | 33948 ft | 494 kts | 258° |
| 2026-05-08 10:34 | 45.75601 | -25.51954 | 33909 ft | 475 kts | 258° |
| 2026-05-08 10:34 | 45.71107 | -25.69520 | 33950 ft | 462 kts | 259° |
| 2026-05-08 10:35 | 45.66656 | -25.86841 | 34311 ft | 471 kts | 259° |
| 2026-05-08 10:35 | 45.62031 | -26.04674 | 34191 ft | 489 kts | 259° |
| 2026-05-08 10:35 | 45.57261 | -26.22821 | 33932 ft | 480 kts | 259° |
| 2026-05-08 10:35 | 45.52959 | -26.39088 | 33691 ft | 462 kts | 260° |
| 2026-05-08 10:36 | 45.48446 | -26.56127 | 33834 ft | 460 kts | 260° |
| 2026-05-08 10:36 | 45.43866 | -26.73288 | 34222 ft | 471 kts | 259° |
| 2026-05-08 10:36 | 45.39114 | -26.90930 | 34214 ft | 485 kts | 259° |
| 2026-05-08 10:36 | 45.34260 | -27.08754 | 33837 ft | 478 kts | 258° |
| 2026-05-08 10:37 | 45.27463 | -27.33536 | 33596 ft | 456 kts | 258° |
| 2026-05-08 10:37 | 45.18318 | -27.66547 | 34060 ft | 450 kts | 259° |
| 2026-05-08 10:37 | 45.08929 | -28.00001 | 34331 ft | 475 kts | 258° |
| 2026-05-08 10:37 | 44.98848 | -28.35385 | 34267 ft | 487 kts | 258° |
| 2026-05-08 10:38 | 44.88643 | -28.70501 | 34025 ft | 474 kts | 259° |
| 2026-05-08 10:38 | 44.78804 | -29.04176 | 34011 ft | 459 kts | 259° |
| 2026-05-08 10:38 | 44.68928 | -29.37558 | 34226 ft | 465 kts | 259° |
| 2026-05-08 10:38 | 44.58684 | -29.71575 | 34310 ft | 481 kts | 257° |
| 2026-05-08 10:39 | 44.48076 | -30.06128 | 34194 ft | 482 kts | 256° |
| 2026-05-08 10:39 | 44.36626 | -30.39783 | 34088 ft | 472 kts | 255° |
| 2026-05-08 10:39 | 44.25617 | -30.72251 | 34166 ft | 467 kts | 254° |
| 2026-05-08 10:39 | 44.14316 | -31.05102 | 34296 ft | 476 kts | 253° |
| 2026-05-08 10:40 | 44.02575 | -31.38757 | 34334 ft | 486 kts | 252° |
| 2026-05-08 10:40 | 43.90701 | -31.72365 | 34208 ft | 481 kts | 252° |
| 2026-05-08 10:40 | 43.78930 | -32.05322 | 34104 ft | 470 kts | 252° |
| 2026-05-08 10:40 | 43.67302 | -32.37552 | 34225 ft | 470 kts | 251° |
| 2026-05-08 10:41 | 43.55404 | -32.70144 | 34356 ft | 481 kts | 250° |
| 2026-05-08 10:41 | 43.30797 | -33.36217 | 34186 ft | 480 kts | 248° |
| 2026-05-08 10:42 | 43.06585 | -33.99776 | 34344 ft | 476 kts | 246° |
| 2026-05-08 10:42 | 42.81229 | -34.64832 | 34316 ft | 486 kts | 245° |
| 2026-05-08 10:42 | 42.68531 | -34.96920 | 34206 ft | 474 kts | 244° |
| 2026-05-08 10:43 | 42.56062 | -35.28032 | 34253 ft | 465 kts | 243° |
| 2026-05-08 10:43 | 42.43580 | -35.58837 | 34388 ft | 469 kts | 243° |
| 2026-05-08 10:43 | 42.30771 | -35.90151 | 34447 ft | 481 kts | 242° |
| 2026-05-08 10:43 | 42.17704 | -36.21731 | 34315 ft | 478 kts | 242° |
| 2026-05-08 10:44 | 42.04800 | -36.52590 | 34232 ft | 466 kts | 241° |
| 2026-05-08 10:44 | 41.79562 | -37.12039 | 34390 ft | 463 kts | 242° |
| 2026-05-08 10:45 | 41.53410 | -37.72359 | 34317 ft | 464 kts | 243° |
| 2026-05-08 10:45 | 41.40507 | -38.01747 | 34231 ft | 452 kts | 243° |
| 2026-05-08 10:45 | 41.27794 | -38.30396 | 34320 ft | 450 kts | 243° |
| 2026-05-08 10:46 | 41.01606 | -38.88538 | 34394 ft | 466 kts | 243° |
| 2026-05-08 10:46 | 40.88268 | -39.17724 | 34261 ft | 459 kts | 243° |
| 2026-05-08 10:46 | 40.75140 | -39.46208 | 34239 ft | 450 kts | 242° |
| 2026-05-08 10:46 | 40.62013 | -39.74412 | 34401 ft | 455 kts | 242° |
| 2026-05-08 10:47 | 40.48173 | -40.03118 | 34414 ft | 474 kts | 234° |
| 2026-05-08 10:47 | 40.11307 | -40.52134 | 34277 ft | 465 kts | 229° |
| 2026-05-08 10:48 | 39.75453 | -40.99664 | 34379 ft | 462 kts | 228° |
| 2026-05-08 10:48 | 39.57088 | -41.23720 | 34446 ft | 473 kts | 227° |
| 2026-05-08 10:48 | 39.38470 | -41.47891 | 34336 ft | 471 kts | 227° |
| 2026-05-08 10:49 | 39.15820 | -41.77051 | 34182 ft | 459 kts | 227° |
| 2026-05-08 10:49 | 39.06820 | -41.88563 | 34436 ft | 455 kts | 227° |
| 2026-05-08 10:49 | 38.97696 | -42.00193 | 34598 ft | 466 kts | 227° |
| 2026-05-08 10:49 | 38.88330 | -42.12080 | 34282 ft | 471 kts | 227° |
| 2026-05-08 10:50 | 38.79216 | -42.23596 | 34022 ft | 460 kts | 227° |
| 2026-05-08 10:50 | 38.70241 | -42.34901 | 34361 ft | 449 kts | 227° |
| 2026-05-08 10:50 | 38.61189 | -42.46267 | 34649 ft | 460 kts | 227° |
| 2026-05-08 10:50 | 38.52933 | -42.56594 | 34356 ft | 477 kts | 227° |
| 2026-05-08 10:51 | 38.43505 | -42.68332 | 34219 ft | 467 kts | 227° |
| 2026-05-08 10:51 | 38.34332 | -42.79715 | 33994 ft | 454 kts | 227° |
| 2026-05-08 10:51 | 38.25325 | -42.90855 | 34479 ft | 454 kts | 227° |
| 2026-05-08 10:51 | 38.16082 | -43.02251 | 34497 ft | 474 kts | 227° |
| 2026-05-08 10:52 | 38.06530 | -43.13970 | 34215 ft | 475 kts | 226° |
| 2026-05-08 10:52 | 37.97207 | -43.25363 | 33908 ft | 461 kts | 226° |
| 2026-05-08 10:52 | 37.88018 | -43.36558 | 34381 ft | 451 kts | 226° |
| 2026-05-08 10:52 | 37.78927 | -43.47603 | 34523 ft | 467 kts | 226° |
| 2026-05-08 10:53 | 37.69401 | -43.59121 | 34305 ft | 473 kts | 226° |
| 2026-05-08 10:53 | 37.59980 | -43.70466 | 34190 ft | 461 kts | 226° |
| 2026-05-08 10:53 | 37.50734 | -43.81567 | 34070 ft | 454 kts | 226° |
| 2026-05-08 10:53 | 37.41611 | -43.92483 | 34404 ft | 458 kts | 226° |
| 2026-05-08 10:54 | 37.32206 | -44.03698 | 34408 ft | 475 kts | 226° |
| 2026-05-08 10:54 | 37.22565 | -44.15143 | 34178 ft | 471 kts | 226° |
| 2026-05-08 10:54 | 37.13150 | -44.26280 | 33969 ft | 459 kts | 225° |
| 2026-05-08 10:54 | 37.04049 | -44.37013 | 34361 ft | 454 kts | 225° |
| 2026-05-08 10:55 | 36.94679 | -44.48027 | 34524 ft | 466 kts | 225° |
| 2026-05-08 10:55 | 36.85037 | -44.59315 | 34129 ft | 475 kts | 225° |
| 2026-05-08 10:55 | 36.78686 | -44.66724 | 33939 ft | 467 kts | 225° |
| 2026-05-08 10:55 | 36.66167 | -44.81289 | 34374 ft | 465 kts | 225° |
| 2026-05-08 10:56 | 36.56827 | -44.92108 | 35479 ft | 452 kts | 225° |
| 2026-05-08 10:56 | 36.50624 | -44.99277 | 35903 ft | 448 kts | 224° |
| 2026-05-08 10:56 | 36.41422 | -45.09351 | 36256 ft | 448 kts | 222° |
| 2026-05-08 10:56 | 36.31743 | -45.19729 | 36307 ft | 460 kts | 222° |
| 2026-05-08 10:57 | 36.22059 | -45.30145 | 36292 ft | 470 kts | 223° |
| 2026-05-08 10:57 | 35.92871 | -45.61335 | 36238 ft | 456 kts | 221° |
| 2026-05-08 10:58 | 35.73370 | -45.82000 | 36263 ft | 469 kts | 221° |
| 2026-05-08 10:58 | 35.53495 | -46.02915 | 36191 ft | 466 kts | 220° |
| 2026-05-08 10:59 | 35.33909 | -46.23391 | 36230 ft | 463 kts | 220° |
| 2026-05-08 10:59 | 35.13863 | -46.44207 | 36243 ft | 479 kts | 220° |
| 2026-05-08 11:00 | 34.93794 | -46.64909 | 36218 ft | 467 kts | 220° |
| 2026-05-08 11:00 | 34.74032 | -46.85159 | 36332 ft | 468 kts | 220° |
| 2026-05-08 11:01 | 34.63918 | -46.95472 | 36207 ft | 477 kts | 219° |
| 2026-05-08 11:01 | 34.53784 | -47.05772 | 36177 ft | 474 kts | 219° |
| 2026-05-08 11:01 | 34.33812 | -47.25973 | 36184 ft | 463 kts | 219° |
| 2026-05-08 11:02 | 34.03634 | -47.56252 | 36128 ft | 481 kts | 219° |
| 2026-05-08 11:03 | 33.83340 | -47.76452 | 36055 ft | 464 kts | 219° |
| 2026-05-08 11:03 | 33.63314 | -47.96259 | 36304 ft | 473 kts | 219° |
| 2026-05-08 11:04 | 33.42695 | -48.16523 | 36113 ft | 476 kts | 220° |
| 2026-05-08 11:04 | 33.32613 | -48.26385 | 36071 ft | 462 kts | 220° |
| 2026-05-08 11:04 | 33.22730 | -48.36023 | 36183 ft | 457 kts | 220° |
| 2026-05-08 11:05 | 33.02782 | -48.55393 | 36204 ft | 471 kts | 220° |
| 2026-05-08 11:05 | 32.82540 | -48.74924 | 36123 ft | 467 kts | 220° |
| 2026-05-08 11:06 | 32.62521 | -48.94126 | 36162 ft | 460 kts | 219° |
| 2026-05-08 11:06 | 32.42369 | -49.13342 | 36165 ft | 470 kts | 219° |
| 2026-05-08 11:07 | 32.21953 | -49.32693 | 36131 ft | 467 kts | 219° |
| 2026-05-08 11:07 | 32.01722 | -49.51756 | 36153 ft | 464 kts | 219° |
| 2026-05-08 11:08 | 31.81291 | -49.70898 | 36139 ft | 484 kts | 220° |
| 2026-05-08 11:08 | 31.60263 | -49.90479 | 36128 ft | 479 kts | 220° |
| 2026-05-08 11:09 | 31.38948 | -50.09268 | 36158 ft | 483 kts | 216° |
| 2026-05-08 11:09 | 31.27831 | -50.18365 | 36287 ft | 491 kts | 217° |
| 2026-05-08 11:09 | 31.16518 | -50.27712 | 36122 ft | 500 kts | 216° |
| 2026-05-08 11:10 | 30.94110 | -50.46126 | 35934 ft | 486 kts | 217° |
| 2026-05-08 11:10 | 30.83071 | -50.55159 | 36248 ft | 488 kts | 217° |
| 2026-05-08 11:10 | 30.71901 | -50.64277 | 36384 ft | 504 kts | 217° |
| 2026-05-08 11:10 | 30.60146 | -50.73841 | 36154 ft | 521 kts | 218° |
| 2026-05-08 11:11 | 30.48321 | -50.83422 | 36063 ft | 511 kts | 218° |
| 2026-05-08 11:11 | 30.36743 | -50.92780 | 35881 ft | 501 kts | 219° |
| 2026-05-08 11:11 | 30.25333 | -51.01986 | 36278 ft | 505 kts | 220° |
| 2026-05-08 11:11 | 30.13582 | -51.11444 | 36166 ft | 527 kts | 220° |
| 2026-05-08 11:12 | 30.01484 | -51.21127 | 36115 ft | 524 kts | 220° |
| 2026-05-08 11:12 | 29.89625 | -51.30595 | 35973 ft | 513 kts | 220° |
| 2026-05-08 11:12 | 29.78011 | -51.39851 | 36118 ft | 505 kts | 221° |
| 2026-05-08 11:12 | 29.66321 | -51.49152 | 36379 ft | 517 kts | 221° |
| 2026-05-08 11:13 | 29.54248 | -51.58721 | 36097 ft | 537 kts | 221° |
| 2026-05-08 11:13 | 29.41975 | -51.68396 | 35936 ft | 531 kts | 221° |
| 2026-05-08 11:13 | 29.29931 | -51.77873 | 35649 ft | 518 kts | 221° |
| 2026-05-08 11:13 | 29.18192 | -51.87092 | 35966 ft | 508 kts | 221° |
| 2026-05-08 11:14 | 29.06557 | -51.96220 | 36366 ft | 521 kts | 221° |
| 2026-05-08 11:14 | 28.94337 | -52.05770 | 36014 ft | 544 kts | 221° |
| 2026-05-08 11:14 | 28.81920 | -52.15411 | 35922 ft | 533 kts | 221° |
| 2026-05-08 11:14 | 28.69789 | -52.24821 | 35590 ft | 519 kts | 221° |
| 2026-05-08 11:15 | 28.58006 | -52.33943 | 35967 ft | 505 kts | 221° |
| 2026-05-08 11:15 | 28.46274 | -52.43017 | 36329 ft | 516 kts | 221° |
| 2026-05-08 11:15 | 28.34112 | -52.52389 | 36051 ft | 538 kts | 220° |
| 2026-05-08 11:15 | 28.21810 | -52.61810 | 35853 ft | 530 kts | 220° |
| 2026-05-08 11:16 | 28.09730 | -52.71049 | 35572 ft | 513 kts | 220° |
| 2026-05-08 11:16 | 27.98009 | -52.80000 | 35915 ft | 503 kts | 220° |
| 2026-05-08 11:16 | 27.86310 | -52.88923 | 36351 ft | 516 kts | 220° |
| 2026-05-08 11:16 | 27.74242 | -52.98093 | 36116 ft | 539 kts | 220° |
| 2026-05-08 11:17 | 27.61820 | -53.07479 | 35807 ft | 531 kts | 219° |
| 2026-05-08 11:17 | 27.49752 | -53.16582 | 35551 ft | 511 kts | 220° |
| 2026-05-08 11:17 | 27.38098 | -53.25364 | 35973 ft | 500 kts | 220° |
| 2026-05-08 11:17 | 27.26363 | -53.34196 | 36348 ft | 516 kts | 219° |
| 2026-05-08 11:18 | 27.14113 | -53.43379 | 36073 ft | 538 kts | 219° |
| 2026-05-08 11:18 | 27.01670 | -53.52658 | 35673 ft | 530 kts | 219° |
| 2026-05-08 11:18 | 26.89633 | -53.61619 | 35552 ft | 508 kts | 219° |
| 2026-05-08 11:18 | 26.77972 | -53.70294 | 36099 ft | 501 kts | 219° |
| 2026-05-08 11:19 | 26.47336 | -53.93032 | 36716 ft | 539 kts | 218° |
| 2026-05-08 11:19 | 25.96038 | -54.30611 | 36241 ft | 553 kts | 217° |
| 2026-05-08 11:19 | 25.46067 | -54.66882 | 35734 ft | 533 kts | 217° |
| 2026-05-08 11:19 | 24.97274 | -55.01922 | 35841 ft | 513 kts | 216° |
| 2026-05-08 11:20 | 24.46857 | -55.31791 | 35981 ft | 509 kts | 212° |
| 2026-05-08 11:20 | 23.97087 | -55.61747 | 36181 ft | 512 kts | 211° |
| 2026-05-08 11:20 | 23.37706 | -55.96830 | 36288 ft | 521 kts | 211° |
| 2026-05-08 11:21 | 22.28071 | -56.60728 | 35994 ft | 522 kts | 209° |
| 2026-05-08 11:21 | 21.26403 | -57.18928 | 36057 ft | 515 kts | 208° |
| 2026-05-08 11:22 | 20.25084 | -57.76034 | 36118 ft | 514 kts | 208° |
| 2026-05-08 11:22 | 19.23908 | -58.32238 | 36128 ft | 510 kts | 209° |
| 2026-05-08 11:23 | 18.23569 | -58.87176 | 36045 ft | 502 kts | 209° |
| 2026-05-08 11:23 | 17.75424 | -59.14167 | 35852 ft | 494 kts | 212° |
| 2026-05-08 11:23 | 17.27773 | -59.41800 | 35899 ft | 486 kts | 211° |
| 2026-05-08 11:24 | 16.34675 | -59.95180 | 35931 ft | 471 kts | 211° |
| 2026-05-08 11:24 | 15.90727 | -60.20180 | 32637 ft | 423 kts | 213° |
| 2026-05-08 11:24 | 15.64237 | -60.48091 | 25407 ft | 394 kts | 226° |
| 2026-05-08 11:24 | 15.56327 | -60.55845 | 24298 ft | 387 kts | 226° |
| 2026-05-08 11:25 | 15.48594 | -60.63739 | 23636 ft | 397 kts | 226° |
| 2026-05-08 11:25 | 15.40631 | -60.71926 | 22672 ft | 400 kts | 226° |
| 2026-05-08 11:25 | 15.32808 | -60.79957 | 21002 ft | 391 kts | 226° |
| 2026-05-08 11:25 | 15.25172 | -60.87789 | 19604 ft | 378 kts | 226° |
| 2026-05-08 11:26 | 15.14378 | -60.98855 | 17453 ft | 362 kts | 226° |
| 2026-05-08 11:26 | 15.04334 | -61.09111 | 15145 ft | 331 kts | 226° |
| 2026-05-08 11:26 | 15.02703 | -61.10777 | 14249 ft | 330 kts | 226° |
| 2026-05-08 11:26 | 15.01063 | -61.12457 | 13150 ft | 334 kts | 226° |
| 2026-05-08 11:27 | 14.99415 | -61.14144 | 12146 ft | 333 kts | 226° |
| 2026-05-08 11:27 | 14.97767 | -61.15830 | 11190 ft | 331 kts | 225° |
| 2026-05-08 11:27 | 14.96144 | -61.17489 | 10500 ft | 321 kts | 225° |
| 2026-05-08 11:27 | 14.94583 | -61.19082 | 9978 ft | 308 kts | 224° |
| 2026-05-08 11:28 | 14.93076 | -61.20621 | 9545 ft | 302 kts | 224° |
| 2026-05-08 11:28 | 14.91592 | -61.22136 | 9292 ft | 297 kts | 224° |
| 2026-05-08 11:28 | 14.90136 | -61.23622 | 9062 ft | 292 kts | 224° |
| 2026-05-08 11:28 | 14.88685 | -61.25102 | 8724 ft | 292 kts | 224° |
| 2026-05-08 11:29 | 14.87242 | -61.26573 | 8437 ft | 289 kts | 224° |
| 2026-05-08 11:29 | 14.85815 | -61.28028 | 8136 ft | 288 kts | 224° |
| 2026-05-08 11:29 | 14.84271 | -61.29296 | 7699 ft | 284 kts | 203° |
| 2026-05-08 11:29 | 14.82421 | -61.29666 | 7593 ft | 268 kts | 175° |
| 2026-05-08 11:30 | 14.80577 | -61.29335 | 7454 ft | 278 kts | 160° |
| 2026-05-08 11:30 | 14.78713 | -61.28705 | 7102 ft | 284 kts | 158° |
| 2026-05-08 11:30 | 14.76845 | -61.28036 | 6768 ft | 285 kts | 158° |
| 2026-05-08 11:30 | 14.74996 | -61.27373 | 6428 ft | 275 kts | 158° |
| 2026-05-08 11:31 | 14.73191 | -61.26730 | 6104 ft | 274 kts | 158° |
| 2026-05-08 11:31 | 14.71387 | -61.26093 | 5768 ft | 273 kts | 158° |
| 2026-05-08 11:31 | 14.69593 | -61.25463 | 5453 ft | 268 kts | 158° |
| 2026-05-08 11:31 | 14.67856 | -61.24858 | 5104 ft | 257 kts | 158° |
| 2026-05-08 11:32 | 14.67025 | -61.24569 | 4936 ft | 252 kts | 158° |
| 2026-05-08 11:32 | 14.65959 | -61.24199 | 4707 ft | 245 kts | 158° |
| 2026-05-08 11:32 | 14.64366 | -61.23644 | 4387 ft | 240 kts | 158° |
| 2026-05-08 11:32 | 14.62785 | -61.23095 | 4075 ft | 239 kts | 158° |
| 2026-05-08 11:33 | 14.61207 | -61.22547 | 3755 ft | 238 kts | 158° |
| 2026-05-08 11:33 | 14.59636 | -61.22003 | 3430 ft | 238 kts | 158° |
| 2026-05-08 11:33 | 14.58072 | -61.21458 | 3120 ft | 235 kts | 156° |
| 2026-05-08 11:33 | 14.56704 | -61.20652 | 2789 ft | 225 kts | 131° |
| 2026-05-08 11:34 | 14.55912 | -61.19298 | 2414 ft | 221 kts | 102° |
| 2026-05-08 11:34 | 14.55884 | -61.17766 | 2267 ft | 209 kts | 76° |
| 2026-05-08 11:34 | 14.56277 | -61.16355 | 2062 ft | 201 kts | 73° |
| 2026-05-08 11:34 | 14.56616 | -61.15039 | 2089 ft | 182 kts | 79° |
| 2026-05-08 11:35 | 14.56820 | -61.13805 | 2066 ft | 166 kts | 81° |
| 2026-05-08 11:35 | 14.57012 | -61.12661 | 1957 ft | 162 kts | 79° |
| 2026-05-08 11:35 | 14.57211 | -61.11511 | 1929 ft | 166 kts | 78° |
| 2026-05-08 11:35 | 14.57420 | -61.10300 | 1711 ft | 168 kts | 80° |
| 2026-05-08 11:36 | 14.57610 | -61.09165 | 1416 ft | 158 kts | 80° |
| 2026-05-08 11:36 | 14.57792 | -61.08089 | 1151 ft | 142 kts | 78° |
| 2026-05-08 11:36 | 14.57964 | -61.07113 | 1074 ft | 150 kts | 80° |
| 2026-05-08 11:36 | 14.58122 | -61.06041 | 955 ft | 150 kts | 82° |
| 2026-05-08 11:37 | 14.58311 | -61.05000 | 728 ft | 145 kts | 78° |
| 2026-05-08 11:37 | 14.58476 | -61.03994 | 485 ft | 140 kts | 81° |
| 2026-05-08 11:37 | 14.58651 | -61.02994 | 281 ft | 145 kts | 79° |
| 2026-05-08 11:37 | 14.58827 | -61.01965 | 109 ft | 149 kts | 78° |
| 2026-05-08 11:38 | 14.59001 | -61.00943 | 27 ft | 131 kts | 81° |
| 2026-05-08 11:38 | 14.59130 | -61.00180 | 22 ft | 84 kts | 79° |
| 2026-05-08 11:38 | 14.59196 | -60.99792 | 25 ft | 36 kts | 81° |
| 2026-05-08 11:38 | 14.59244 | -60.99666 | 27 ft | 15 kts | 25° |
| 2026-05-08 11:39 | 14.59346 | -60.99673 | 26 ft | 14 kts | 345° |
| 2026-05-08 11:39 | 14.59394 | -60.99751 | 27 ft | 14 kts | 273° |
| 2026-05-08 11:39 | 14.59380 | -60.99853 | 26 ft | 15 kts | 260° |
| 2026-05-08 11:39 | 14.59363 | -60.99961 | 29 ft | 15 kts | 262° |
| 2026-05-08 11:40 | 14.59373 | -61.00054 | 29 ft | 9 kts | 318° |
| 2026-05-08 11:40 | 14.59428 | -61.00052 | 26 ft | 6 kts | 20° |
| 2026-05-08 11:40 | 14.59447 | -61.00044 | 26 ft | 1 kts | 21° |